createdAt,value
2017-10-26T00:00:13.098Z,8.04
2017-10-26T00:02:39.613Z,8.01
2017-10-26T00:05:06.070Z,7.96
2017-10-26T00:07:33.221Z,7.89
2017-10-26T00:09:59.658Z,7.81
2017-10-26T00:12:26.091Z,7.76
2017-10-26T00:14:52.533Z,7.76
2017-10-26T00:17:18.962Z,7.77
2017-10-26T00:19:45.393Z,7.76
2017-10-26T00:22:11.837Z,7.73
2017-10-26T00:24:38.879Z,7.71
2017-10-26T00:27:05.313Z,7.72
2017-10-26T00:29:31.748Z,7.78
2017-10-26T00:31:58.182Z,7.78
2017-10-26T00:34:24.617Z,7.65
2017-10-26T00:36:51.060Z,7.52
2017-10-26T00:39:17.589Z,7.47
2017-10-26T00:41:44.638Z,7.44
2017-10-26T00:44:11.073Z,7.41
2017-10-26T00:46:37.508Z,7.37
2017-10-26T00:49:03.941Z,7.38
2017-10-26T00:51:30.377Z,7.41
2017-10-26T00:53:56.812Z,7.35
2017-10-26T00:56:23.247Z,7.32
2017-10-26T00:58:50.381Z,7.30
2017-10-26T01:01:16.832Z,7.29
2017-10-26T01:03:43.370Z,7.32
2017-10-26T01:06:09.813Z,7.36
2017-10-26T01:08:36.176Z,7.41
2017-10-26T01:11:02.571Z,7.40
2017-10-26T01:13:29.015Z,7.40
2017-10-26T01:15:56.160Z,7.31
2017-10-26T01:18:22.592Z,7.15
2017-10-26T01:20:49.011Z,7.03
2017-10-26T01:23:15.461Z,6.98
2017-10-26T01:25:41.904Z,6.94
2017-10-26T01:28:08.332Z,6.96
2017-10-26T01:30:34.765Z,6.95
2017-10-26T01:33:01.896Z,6.95
2017-10-26T01:35:28.352Z,7.01
2017-10-26T01:37:54.795Z,7.06
2017-10-26T01:40:21.332Z,7.05
2017-10-26T01:42:47.768Z,7.05
2017-10-26T01:45:14.182Z,7.00
2017-10-26T01:47:40.629Z,6.94
2017-10-26T01:50:07.780Z,6.88
2017-10-26T01:52:34.189Z,6.82
2017-10-26T01:55:00.653Z,6.87
2017-10-26T01:57:27.084Z,6.93
2017-10-26T01:59:53.519Z,6.93
2017-10-26T02:02:19.954Z,6.94
2017-10-26T02:04:46.396Z,6.92
2017-10-26T02:07:13.641Z,6.89
2017-10-26T02:09:40.085Z,6.89
2017-10-26T02:12:06.470Z,6.83
2017-10-26T02:14:32.937Z,6.68
2017-10-26T02:16:59.381Z,6.60
2017-10-26T02:19:25.917Z,6.64
2017-10-26T02:21:52.360Z,6.65
2017-10-26T02:24:19.620Z,6.72
2017-10-26T02:26:46.041Z,6.78
2017-10-26T02:29:12.476Z,6.84
2017-10-26T02:31:38.915Z,6.90
2017-10-26T02:34:05.346Z,6.80
2017-10-26T02:36:31.780Z,6.78
2017-10-26T02:38:58.152Z,6.72
2017-10-26T02:41:25.382Z,6.65
2017-10-26T02:43:51.801Z,6.62
2017-10-26T02:46:18.244Z,6.57
2017-10-26T02:48:44.679Z,6.56
2017-10-26T02:51:11.106Z,6.53
2017-10-26T02:53:37.543Z,6.60
2017-10-26T02:56:03.974Z,6.72
2017-10-26T02:58:31.063Z,6.82
2017-10-26T03:00:57.569Z,6.83
2017-10-26T03:03:24.003Z,6.88
2017-10-26T03:05:50.429Z,6.93
2017-10-26T03:08:16.864Z,6.92
2017-10-26T03:10:43.310Z,6.79
2017-10-26T03:13:09.731Z,6.66
2017-10-26T03:15:36.886Z,6.62
2017-10-26T03:18:03.323Z,6.57
2017-10-26T03:20:29.755Z,6.59
2017-10-26T03:22:56.194Z,6.67
2017-10-26T03:25:22.608Z,6.74
2017-10-26T03:27:49.059Z,6.81
2017-10-26T03:30:15.498Z,6.82
2017-10-26T03:32:42.655Z,6.79
2017-10-26T03:35:09.081Z,6.82
2017-10-26T03:37:35.556Z,6.83
2017-10-26T03:40:01.911Z,6.75
2017-10-26T03:42:28.384Z,6.61
2017-10-26T03:44:54.828Z,6.46
2017-10-26T03:47:21.359Z,6.34
2017-10-26T03:49:48.508Z,6.27
2017-10-26T03:52:14.841Z,6.19
2017-10-26T03:54:41.283Z,6.10
2017-10-26T03:57:07.709Z,6.00
2017-10-26T03:59:34.096Z,5.89
2017-10-26T04:02:00.565Z,5.79
2017-10-26T04:04:27.014Z,5.79
2017-10-26T04:06:54.167Z,5.78
2017-10-26T04:09:20.609Z,5.77
2017-10-26T04:11:47.044Z,5.73
2017-10-26T04:14:13.699Z,5.72
2017-10-26T04:16:40.111Z,5.74
2017-10-26T04:19:06.553Z,5.77
2017-10-26T04:21:32.978Z,5.73
2017-10-26T04:24:00.141Z,5.61
2017-10-26T04:26:26.539Z,5.57
2017-10-26T04:28:52.977Z,5.52
2017-10-26T04:31:19.421Z,5.49
2017-10-26T04:33:45.877Z,5.57
2017-10-26T04:36:12.312Z,5.68
2017-10-26T04:38:38.738Z,5.74
2017-10-26T04:41:05.174Z,5.75
2017-10-26T04:43:31.608Z,5.67
2017-10-26T04:45:58.042Z,5.71
2017-10-26T04:48:24.478Z,5.74
2017-10-26T04:50:50.920Z,5.82
2017-10-26T04:53:17.356Z,5.92
2017-10-26T04:55:43.797Z,5.99
2017-10-26T04:58:10.159Z,6.03
2017-10-26T05:00:36.659Z,6.06
2017-10-26T05:03:03.094Z,6.12
2017-10-26T05:05:29.716Z,6.21
2017-10-26T05:07:56.161Z,6.27
2017-10-26T05:10:22.615Z,6.35
2017-10-26T05:12:49.140Z,6.42
2017-10-26T05:15:15.570Z,6.48
2017-10-26T05:17:42.145Z,6.51
2017-10-26T05:20:08.538Z,6.52
2017-10-26T05:22:35.279Z,6.53
2017-10-26T05:25:01.715Z,6.60
2017-10-26T05:27:28.157Z,6.63
2017-10-26T05:29:54.596Z,6.69
2017-10-26T05:32:21.847Z,6.79
2017-10-26T05:34:48.272Z,6.90
2017-10-26T05:37:14.820Z,6.99
2017-10-26T05:39:41.956Z,7.06
2017-10-26T05:42:08.398Z,7.16
2017-10-26T05:44:35.254Z,7.23
2017-10-26T05:47:01.801Z,7.29
2017-10-26T05:49:28.244Z,7.28
2017-10-26T05:51:54.669Z,7.30
2017-10-26T05:54:21.110Z,7.36
2017-10-26T05:56:47.548Z,7.39
2017-10-26T05:59:13.974Z,7.44
2017-10-26T06:01:40.417Z,7.47
2017-10-26T06:04:06.773Z,7.51
2017-10-26T06:06:33.176Z,7.59
2017-10-26T06:08:59.613Z,7.64
2017-10-26T06:11:26.260Z,7.60
2017-10-26T06:13:52.685Z,7.55
2017-10-26T06:16:19.129Z,7.64
2017-10-26T06:18:45.452Z,7.83
2017-10-26T06:21:12.200Z,8.01
2017-10-26T06:23:39.148Z,8.15
2017-10-26T06:26:05.575Z,8.26
2017-10-26T06:28:32.016Z,8.33
2017-10-26T06:30:58.555Z,8.42
2017-10-26T06:33:24.991Z,8.52
2017-10-26T06:35:51.420Z,8.51
2017-10-26T06:38:17.853Z,8.57
2017-10-26T06:40:44.287Z,8.69
2017-10-26T06:43:10.732Z,8.78
2017-10-26T06:45:38.163Z,8.90
2017-10-26T06:48:04.608Z,8.88
2017-10-26T06:50:31.536Z,8.90
2017-10-26T06:52:57.998Z,8.99
2017-10-26T06:55:24.565Z,9.20
2017-10-26T06:57:51.111Z,9.38
2017-10-26T07:00:17.822Z,9.57
2017-10-26T07:02:44.460Z,9.70
2017-10-26T07:05:10.994Z,9.65
2017-10-26T07:07:37.423Z,9.79
2017-10-26T07:10:03.856Z,9.94
2017-10-26T07:12:30.293Z,10.11
2017-10-26T07:14:56.746Z,10.28
2017-10-26T07:17:23.160Z,10.41
2017-10-26T07:19:49.679Z,10.52
2017-10-26T07:22:16.122Z,10.56
2017-10-26T07:24:42.572Z,10.55
2017-10-26T07:27:09.412Z,10.63
2017-10-26T07:29:35.848Z,10.80
2017-10-26T07:32:02.494Z,10.96
2017-10-26T07:34:28.929Z,11.10
2017-10-26T07:36:55.355Z,11.16
2017-10-26T07:39:21.892Z,11.20
2017-10-26T07:41:48.328Z,11.23
2017-10-26T07:44:14.763Z,11.36
2017-10-26T07:46:41.197Z,11.47
2017-10-26T07:49:07.736Z,11.62
2017-10-26T07:51:34.169Z,11.70
2017-10-26T07:54:01.395Z,11.81
2017-10-26T07:56:27.864Z,11.92
2017-10-26T07:58:54.405Z,12.06
2017-10-26T08:01:20.797Z,12.08
2017-10-26T08:03:47.264Z,12.04
2017-10-26T08:06:13.698Z,12.15
2017-10-26T08:08:40.243Z,12.28
2017-10-26T08:11:07.284Z,12.36
2017-10-26T08:13:34.781Z,12.45
2017-10-26T08:16:01.178Z,12.51
2017-10-26T08:18:27.927Z,12.61
2017-10-26T08:20:54.312Z,12.67
2017-10-26T08:23:20.788Z,12.72
2017-10-26T08:25:47.234Z,12.88
2017-10-26T08:28:13.659Z,12.98
2017-10-26T08:30:40.090Z,13.09
2017-10-26T08:33:06.551Z,13.21
2017-10-26T08:35:32.966Z,13.34
2017-10-26T08:37:59.428Z,13.35
2017-10-26T08:40:26.661Z,13.36
2017-10-26T08:42:53.067Z,13.45
2017-10-26T08:45:19.539Z,13.56
2017-10-26T08:47:45.955Z,13.71
2017-10-26T08:50:12.501Z,13.82
2017-10-26T08:52:38.936Z,13.77
2017-10-26T08:55:05.362Z,13.71
2017-10-26T08:57:31.797Z,13.74
2017-10-26T08:59:58.777Z,13.86
2017-10-26T09:02:25.186Z,13.84
2017-10-26T09:04:51.920Z,13.89
2017-10-26T09:07:18.355Z,14.00
2017-10-26T09:09:44.858Z,14.01
2017-10-26T09:12:11.175Z,14.15
2017-10-26T09:14:37.865Z,14.07
2017-10-26T09:17:04.299Z,14.20
2017-10-26T09:19:30.767Z,14.22
2017-10-26T09:21:57.168Z,14.14
2017-10-26T09:24:23.499Z,14.24
2017-10-26T09:26:50.036Z,14.24
2017-10-26T09:29:16.573Z,14.37
2017-10-26T09:31:43.118Z,14.40
2017-10-26T09:34:09.638Z,14.42
2017-10-26T09:36:37.010Z,14.55
2017-10-26T09:39:03.647Z,14.61
2017-10-26T09:41:30.181Z,14.64
2017-10-26T09:43:56.622Z,14.73
2017-10-26T09:46:23.030Z,14.84
2017-10-26T09:48:49.486Z,14.92
2017-10-26T09:51:15.887Z,14.95
2017-10-26T09:53:42.354Z,15.04
2017-10-26T09:56:08.852Z,15.14
2017-10-26T09:58:35.707Z,15.21
2017-10-26T10:01:02.148Z,15.29
2017-10-26T10:03:29.330Z,15.42
2017-10-26T10:05:59.337Z,15.45
2017-10-26T10:08:27.626Z,15.51
2017-10-26T10:10:54.159Z,15.60
2017-10-26T10:13:20.599Z,15.68
2017-10-26T10:15:47.240Z,15.62
2017-10-26T10:18:13.698Z,15.56
2017-10-26T10:20:40.345Z,15.36
2017-10-26T10:23:06.740Z,15.36
2017-10-26T10:25:33.281Z,15.35
2017-10-26T10:27:59.711Z,15.52
2017-10-26T10:30:26.131Z,15.42
2017-10-26T10:32:52.592Z,15.30
2017-10-26T10:35:19.127Z,15.41
2017-10-26T10:37:45.964Z,15.61
2017-10-26T10:40:12.499Z,15.68
2017-10-26T10:42:38.974Z,15.78
2017-10-26T10:45:05.372Z,15.91
2017-10-26T10:47:31.803Z,16.10
2017-10-26T10:49:58.451Z,16.03
2017-10-26T10:52:24.886Z,16.08
2017-10-26T10:54:51.415Z,16.38
2017-10-26T10:57:17.824Z,16.79
2017-10-26T10:59:44.696Z,16.95
2017-10-26T11:02:11.140Z,17.30
2017-10-26T11:04:37.460Z,17.67
2017-10-26T11:07:03.909Z,17.90
2017-10-26T11:09:30.330Z,18.35
2017-10-26T11:11:56.774Z,18.54
2017-10-26T11:14:23.208Z,18.88
2017-10-26T11:16:50.461Z,19.15
2017-10-26T11:19:17.101Z,19.53
2017-10-26T11:21:43.594Z,19.85
2017-10-26T11:24:10.279Z,20.25
2017-10-26T11:26:37.121Z,20.54
2017-10-26T11:29:03.659Z,20.90
2017-10-26T11:31:30.119Z,20.91
2017-10-26T11:33:56.516Z,21.02
2017-10-26T11:36:23.377Z,21.16
2017-10-26T11:38:50.321Z,21.00
2017-10-26T11:41:16.757Z,21.08
2017-10-26T11:43:43.263Z,21.20
2017-10-26T11:46:10.302Z,21.49
2017-10-26T11:48:37.793Z,21.70
2017-10-26T11:51:04.338Z,22.09
2017-10-26T11:53:30.932Z,22.33
2017-10-26T11:55:57.411Z,22.96
2017-10-26T11:58:23.925Z,23.34
2017-10-26T12:00:50.898Z,23.38
2017-10-26T12:03:17.321Z,23.75
2017-10-26T12:05:43.763Z,23.98
2017-10-26T12:08:10.497Z,24.66
2017-10-26T12:10:36.940Z,24.95
2017-10-26T12:13:03.367Z,24.80
2017-10-26T12:15:30.101Z,24.78
2017-10-26T12:17:56.544Z,24.89
2017-10-26T12:20:22.980Z,25.41
2017-10-26T12:22:49.395Z,25.26
2017-10-26T12:25:15.883Z,24.56
2017-10-26T12:27:43.056Z,24.00
2017-10-26T12:30:09.544Z,23.56
2017-10-26T12:32:36.995Z,24.12
2017-10-26T12:35:03.957Z,24.83
2017-10-26T12:37:30.549Z,25.62
2017-10-26T12:39:57.325Z,25.98
2017-10-26T12:42:23.765Z,26.05
2017-10-26T12:44:50.193Z,26.16
2017-10-26T12:47:16.733Z,26.05
2017-10-26T12:49:44.638Z,26.22
2017-10-26T12:52:11.111Z,26.36
2017-10-26T12:54:37.852Z,26.40
2017-10-26T12:57:04.415Z,26.33
2017-10-26T12:59:30.952Z,26.27
2017-10-26T13:01:57.592Z,26.02
2017-10-26T13:04:24.035Z,25.80
2017-10-26T13:06:50.702Z,25.68
2017-10-26T13:09:17.772Z,25.42
2017-10-26T13:11:44.514Z,25.28
2017-10-26T13:14:11.051Z,25.49
2017-10-26T13:16:37.817Z,25.54
2017-10-26T13:19:04.348Z,25.74
2017-10-26T13:21:30.900Z,26.20
2017-10-26T13:23:57.412Z,26.77
2017-10-26T13:26:23.849Z,26.82
2017-10-26T13:28:50.274Z,26.31
2017-10-26T13:31:17.225Z,25.88
2017-10-26T13:33:44.475Z,25.59
2017-10-26T13:36:12.036Z,25.25
2017-10-26T13:38:38.479Z,24.26
2017-10-26T13:41:05.147Z,23.77
2017-10-26T13:43:31.553Z,23.50
2017-10-26T13:45:57.979Z,23.61
2017-10-26T13:48:24.619Z,23.57
2017-10-26T13:50:51.122Z,23.78
2017-10-26T13:53:17.592Z,24.26
2017-10-26T13:55:44.038Z,25.11
2017-10-26T13:58:10.469Z,25.61
2017-10-26T14:00:37.009Z,26.20
2017-10-26T14:03:03.434Z,26.20
2017-10-26T14:05:29.765Z,26.44
2017-10-26T14:07:56.215Z,26.91
2017-10-26T14:10:22.565Z,27.32
2017-10-26T14:12:49.104Z,27.48
2017-10-26T14:15:15.473Z,27.25
2017-10-26T14:17:42.044Z,27.61
2017-10-26T14:20:08.791Z,27.22
2017-10-26T14:22:35.432Z,26.97
2017-10-26T14:25:01.971Z,26.85
2017-10-26T14:27:28.812Z,26.66
2017-10-26T14:29:55.452Z,26.60
2017-10-26T14:32:22.191Z,25.90
2017-10-26T14:34:48.828Z,25.97
2017-10-26T14:37:15.370Z,25.96
2017-10-26T14:39:41.812Z,25.08
2017-10-26T14:42:09.460Z,24.36
2017-10-26T14:44:35.797Z,23.58
2017-10-26T14:47:02.227Z,22.71
2017-10-26T14:49:28.670Z,22.58
2017-10-26T14:51:55.211Z,22.56
2017-10-26T14:54:21.635Z,22.36
2017-10-26T14:56:48.173Z,21.97
2017-10-26T14:59:15.017Z,21.53
2017-10-26T15:01:41.562Z,20.92
2017-10-26T15:04:07.988Z,20.41
2017-10-26T15:06:34.434Z,19.95
2017-10-26T15:09:00.805Z,19.35
2017-10-26T15:11:27.257Z,18.97
2017-10-26T15:13:53.636Z,18.68
2017-10-26T15:16:20.174Z,18.36
2017-10-26T15:18:46.812Z,18.00
2017-10-26T15:21:13.245Z,17.60
2017-10-26T15:23:39.649Z,17.36
2017-10-26T15:26:06.004Z,17.14
2017-10-26T15:28:32.458Z,16.92
2017-10-26T15:30:58.847Z,16.77
2017-10-26T15:33:25.315Z,16.45
2017-10-26T15:35:51.750Z,16.18
2017-10-26T15:38:18.115Z,16.02
2017-10-26T15:40:44.620Z,15.87
2017-10-26T15:43:11.048Z,15.75
2017-10-26T15:45:37.480Z,15.67
2017-10-26T15:48:03.915Z,15.51
2017-10-26T15:50:30.453Z,15.44
2017-10-26T15:52:56.939Z,15.30
2017-10-26T15:55:23.424Z,15.18
2017-10-26T15:57:49.860Z,14.98
2017-10-26T16:00:16.294Z,14.86
2017-10-26T16:02:42.737Z,14.75
2017-10-26T16:05:09.880Z,14.69
2017-10-26T16:07:36.314Z,14.63
2017-10-26T16:10:02.757Z,14.63
2017-10-26T16:12:29.184Z,14.61
2017-10-26T16:14:55.619Z,14.54
2017-10-26T16:17:22.053Z,14.37
2017-10-26T16:19:48.488Z,14.31
2017-10-26T16:22:15.538Z,14.30
2017-10-26T16:24:41.982Z,14.08
2017-10-26T16:27:08.532Z,14.11
2017-10-26T16:29:34.950Z,14.04
2017-10-26T16:32:01.385Z,13.96
2017-10-26T16:34:27.697Z,13.92
2017-10-26T16:36:54.081Z,13.84
2017-10-26T16:39:21.400Z,13.73
2017-10-26T16:41:47.749Z,13.61
2017-10-26T16:44:14.174Z,13.56
2017-10-26T16:46:40.598Z,13.51
2017-10-26T16:49:07.037Z,13.39
2017-10-26T16:51:33.471Z,13.43
2017-10-26T16:53:59.913Z,13.37
2017-10-26T16:56:27.159Z,13.29
2017-10-26T16:58:53.602Z,13.22
2017-10-26T17:01:20.048Z,13.26
2017-10-26T17:03:46.463Z,13.18
2017-10-26T17:06:12.906Z,13.13
2017-10-26T17:08:39.333Z,13.11
2017-10-26T17:11:05.877Z,13.03
2017-10-26T17:13:33.021Z,13.07
2017-10-26T17:15:59.391Z,13.02
2017-10-26T17:18:25.789Z,12.96
2017-10-26T17:20:52.251Z,12.91
2017-10-26T17:23:18.656Z,12.81
2017-10-26T17:25:45.067Z,12.72
2017-10-26T17:28:11.509Z,12.65
2017-10-26T17:30:38.576Z,12.62
2017-10-26T17:33:05.014Z,12.58
2017-10-26T17:35:31.445Z,12.62
2017-10-26T17:37:57.911Z,12.56
2017-10-26T17:40:24.315Z,12.54
2017-10-26T17:42:50.757Z,12.51
2017-10-26T17:45:17.196Z,12.47
2017-10-26T17:47:44.344Z,12.37
2017-10-26T17:50:10.780Z,12.29
2017-10-26T17:52:37.208Z,12.26
2017-10-26T17:55:03.743Z,12.10
2017-10-26T17:57:30.180Z,12.24
2017-10-26T17:59:56.621Z,12.24
2017-10-26T18:02:23.052Z,12.18
2017-10-26T18:04:50.198Z,12.15
2017-10-26T18:07:16.642Z,12.13
2017-10-26T18:09:43.076Z,12.13
2017-10-26T18:12:09.503Z,12.13
2017-10-26T18:14:35.877Z,12.07
2017-10-26T18:17:02.372Z,12.04
2017-10-26T18:19:28.807Z,12.04
2017-10-26T18:21:56.070Z,12.01
2017-10-26T18:24:22.504Z,11.82
2017-10-26T18:26:48.929Z,11.72
2017-10-26T18:29:15.364Z,11.64
2017-10-26T18:31:42.006Z,11.61
2017-10-26T18:34:08.447Z,11.62
2017-10-26T18:36:34.846Z,11.63
2017-10-26T18:39:01.295Z,11.62
2017-10-26T18:41:27.744Z,11.61
2017-10-26T18:43:54.248Z,11.59
2017-10-26T18:46:21.338Z,11.55
2017-10-26T18:48:47.773Z,11.57
2017-10-26T18:51:14.218Z,11.60
2017-10-26T18:53:40.639Z,11.57
2017-10-26T18:56:07.040Z,11.51
2017-10-26T18:58:33.438Z,11.52
2017-10-26T19:00:59.950Z,11.48
2017-10-26T19:03:27.098Z,11.42
2017-10-26T19:05:53.533Z,11.34
2017-10-26T19:08:19.959Z,11.32
2017-10-26T19:10:46.394Z,11.31
2017-10-26T19:13:12.848Z,11.25
2017-10-26T19:15:39.373Z,11.21
2017-10-26T19:18:05.808Z,11.19
2017-10-26T19:20:33.130Z,11.15
2017-10-26T19:22:59.599Z,11.13
2017-10-26T19:25:26.026Z,11.13
2017-10-26T19:27:52.460Z,11.11
2017-10-26T19:30:18.896Z,11.03
2017-10-26T19:32:45.272Z,11.13
2017-10-26T19:35:11.773Z,11.12
2017-10-26T19:37:38.924Z,10.91
2017-10-26T19:40:05.352Z,10.91
2017-10-26T19:42:31.727Z,10.95
2017-10-26T19:44:58.231Z,10.97
2017-10-26T19:47:24.591Z,10.90
2017-10-26T19:49:51.060Z,10.80
2017-10-26T19:52:17.423Z,10.80
2017-10-26T19:54:44.676Z,10.86
2017-10-26T19:57:11.153Z,10.83
2017-10-26T19:59:37.648Z,10.74
2017-10-26T20:02:04.052Z,10.73
2017-10-26T20:04:30.519Z,10.70
2017-10-26T20:06:56.962Z,10.66
2017-10-26T20:09:23.387Z,10.62
2017-10-26T20:11:50.650Z,10.64
2017-10-26T20:14:17.048Z,10.58
2017-10-26T20:16:43.522Z,10.59
2017-10-26T20:19:09.949Z,10.57
2017-10-26T20:21:36.323Z,10.60
2017-10-26T20:24:02.823Z,10.57
2017-10-26T20:26:29.260Z,10.60
2017-10-26T20:28:56.401Z,10.29
2017-10-26T20:31:22.844Z,10.27
2017-10-26T20:33:49.279Z,10.23
2017-10-26T20:36:15.816Z,10.26
2017-10-26T20:38:42.244Z,10.20
2017-10-26T20:41:08.677Z,10.17
2017-10-26T20:43:35.080Z,10.22
2017-10-26T20:46:02.160Z,10.19
2017-10-26T20:48:28.596Z,10.20
2017-10-26T20:50:55.051Z,10.16
2017-10-26T20:53:21.465Z,10.16
2017-10-26T20:55:47.899Z,10.19
2017-10-26T20:58:14.335Z,10.19
2017-10-26T21:00:40.708Z,10.14
2017-10-26T21:03:07.929Z,10.10
2017-10-26T21:05:34.355Z,10.08
2017-10-26T21:08:00.799Z,10.12
2017-10-26T21:10:27.226Z,10.14
2017-10-26T21:12:53.668Z,10.19
2017-10-26T21:15:20.094Z,10.21
2017-10-26T21:17:46.528Z,10.20
2017-10-26T21:20:13.685Z,10.22
2017-10-26T21:22:40.123Z,10.17
2017-10-26T21:25:06.550Z,10.05
2017-10-26T21:27:32.984Z,10.00
2017-10-26T21:29:59.418Z,10.02
2017-10-26T21:32:25.823Z,10.01
2017-10-26T21:34:52.308Z,9.95
2017-10-26T21:37:19.449Z,9.94
2017-10-26T21:39:45.875Z,9.93
2017-10-26T21:42:12.421Z,9.98
2017-10-26T21:44:38.815Z,9.98
2017-10-26T21:47:05.291Z,9.92
2017-10-26T21:49:31.725Z,9.86
2017-10-26T21:51:58.259Z,9.83
2017-10-26T21:54:25.304Z,9.76
2017-10-26T21:56:51.746Z,9.72
2017-10-26T21:59:18.283Z,9.67
2017-10-26T22:01:44.624Z,9.73
2017-10-26T22:04:11.150Z,9.78
2017-10-26T22:06:37.587Z,9.74
2017-10-26T22:09:03.911Z,9.70
2017-10-26T22:11:31.174Z,9.68
2017-10-26T22:13:57.599Z,9.69
2017-10-26T22:16:24.028Z,9.69
2017-10-26T22:18:50.470Z,9.53
2017-10-26T22:21:16.912Z,9.73
2017-10-26T22:23:43.347Z,9.65
2017-10-26T22:26:09.773Z,9.58
2017-10-26T22:28:37.037Z,9.53
2017-10-26T22:31:03.461Z,9.52
2017-10-26T22:33:29.911Z,9.60
2017-10-26T22:35:56.434Z,9.62
2017-10-26T22:38:22.869Z,9.55
2017-10-26T22:40:49.304Z,9.48
2017-10-26T22:43:15.738Z,9.44
2017-10-26T22:45:43.003Z,9.42
2017-10-26T22:48:09.427Z,9.36
2017-10-26T22:50:35.861Z,9.35
2017-10-26T22:53:02.296Z,9.34
2017-10-26T22:55:28.627Z,9.39
2017-10-26T22:57:55.027Z,9.45
2017-10-26T23:00:21.506Z,9.50
2017-10-26T23:02:48.649Z,9.49
2017-10-26T23:05:15.056Z,9.35
2017-10-26T23:07:41.528Z,9.29
2017-10-26T23:10:07.954Z,9.31
2017-10-26T23:12:34.490Z,9.32
2017-10-26T23:15:00.935Z,9.34
2017-10-26T23:17:27.359Z,9.34
2017-10-26T23:19:54.600Z,9.45
2017-10-26T23:22:21.019Z,9.51
2017-10-26T23:24:47.497Z,9.49
2017-10-26T23:27:13.928Z,9.46
2017-10-26T23:29:40.324Z,9.49
2017-10-26T23:32:06.762Z,9.51
2017-10-26T23:34:33.222Z,9.48
2017-10-26T23:37:00.311Z,9.46
2017-10-26T23:39:26.748Z,9.41
2017-10-26T23:41:53.074Z,9.34
2017-10-26T23:44:19.548Z,9.27
2017-10-26T23:46:45.991Z,9.19
2017-10-26T23:49:12.432Z,9.15
2017-10-26T23:51:38.891Z,9.12
2017-10-26T23:54:06.046Z,9.13
2017-10-26T23:56:32.569Z,9.19
2017-10-26T23:58:59.012Z,9.18
